Prochaines Courses

Connexion

Trail + VTT

ODYSSE TRAIL + VTT du 02/06/13 (Reelle 30,6)
Rang Dossard Nom Prénom Temps Cat Rang Cat Ecart Ecart Cat Club Vitesse Km/h Temps au Km
1 225 BOULOGNE Jérémy CUCHEVAL Mathias 01:19:26 MASCULINS 1 00:00:00 00:00:00 LES FLAHUTES 23,114 02:36
2 295 MASSON Mickael CUCHEVAL Samuel 01:25:03 MASCULINS 2 00:05:37 00:05:37 MARCKATHLON LYS CALAIS TRI 21,587 02:47
3 213 BOUCLET Bastien HURTEL David 01:28:10 MASCULINS 3 00:08:44 00:08:44 JARDINERIE TULIPE 20,824 02:53
4 275 DINIELLE Arnaud LECARPENTIER Fabrice 01:28:23 MASCULINS 4 00:08:57 00:08:57 TEAM MANOSPORT 1 20,773 02:53
5 233 HERTAULT Ludovic BIGNOT Christophe 01:29:16 VETERANS 1 00:09:50 00:00:00 IMS RETAIL AGILITY 20,568 02:55
6 287 FLINOIS Anthony PCZYBYLSKI Guillaume 01:29:56 MASCULINS 5 00:10:30 00:10:30 PEDAL DAMN IT 20,415 02:56
7 200 LANDRECIES Loic CROGIEZ José 01:32:05 MASCULINS 6 00:12:39 00:12:39 VELOLAND BOULOGNE 19,938 03:01
8 257 LEBLANC Maxime CLETY François 01:32:30 MASCULINS 7 00:13:04 00:13:04 MADE IN RAID 19,849 03:01
9 279 LOEUILLIEUX Stéphane LACROIX Olivier 01:32:55 MASCULINS 8 00:13:29 00:13:29 LE DRAPEAU D OPALE TRAIL NATURE 19,760 03:02
10 214 DANEL Marc André QUEVAL Jean-Jacques 01:33:49 VETERANS 2 00:14:23 00:04:33 MARCKATHLON TEAM 19,570 03:04
11 274 LEFEBVRE Julien BREQUEVILLE Samuel 01:36:03 MASCULINS 9 00:16:37 00:16:37 TOUQUET OPALE ATHETISME 19,115 03:08
12 267 BIERNACKI Alexandre CLEMENT Damien 01:36:12 MASCULINS 10 00:16:46 00:16:46 TRAITHLON CLUB BOULONNAIS 19,085 03:09
13 288 DEGARDIN Laurent PARENT Blaise 01:36:25 MASCULINS 11 00:16:59 00:16:59 TOP GUN 19,042 03:09
14 203 SUEUR Fabrice CARPENTIER Thierry 01:36:34 VETERANS 3 00:17:08 00:07:18 SPORT EVASION DES 2 CAPS 19,013 03:09
15 221 LECOUTRE Thierry RIFFARD Jean 01:37:06 VETERANS 4 00:17:40 00:07:50 OTN TEAM VETERANS 18,908 03:10
16 286 LELEU Laëtitia GOURDAIN Eric 01:37:12 MIXTES 1 00:17:46 00:00:00 LES CRAPULES 18,889 03:11
17 201 CARRE Pauline QUEVAL Charles Hubert 01:37:25 MIXTES 2 00:17:59 00:00:13 LILLE 2 LA TENTATION 18,847 03:11
18 278 THIBAULT Olivier LECLERCQ Richard 01:38:25 MASCULINS 12 00:18:59 00:18:59 LES BARONS BERCKOIS 18,655 03:13
19 204 FRANCOIS Gilbert ANDRIEUX Dimitri 01:39:18 MASCULINS 13 00:19:52 00:19:52 LYS CALAIS TRIATHLON PÈRE ET FILS 18,489 03:15
20 252 BOURGUIGNON Vincent SUEUR Dominique 01:39:25 MASCULINS 14 00:19:59 00:19:59 TEAM TRAIL 1 18,468 03:15
21 289 DELAY Bastien SAISON Antoine 01:39:32 JEUNES 1 00:20:06 00:00:00 STAR FIRE 18,446 03:15
22 210 DUHAMEL Maxime CAFFIER Morgan 01:39:36 MASCULINS 15 00:20:10 00:20:10 LES FREE RAIDERS 18,434 03:15
23 95 DUCROCQ Antoine MILLE Sébastien 01:41:40 MASCULINS 16 00:22:14 00:22:14 LES BOFS 18,059 03:19
24 242 BLANPAIN Jean-Pierre COMBET Philippe 01:42:05 VETERANS 5 00:22:39 00:12:49 LES GRAVELINOIS 17,985 03:20
25 245 BLOND Céline BLOND Grégory 01:42:22 MIXTES 3 00:22:56 00:05:10 JULBO 1 17,936 03:21
26 235 VANDJOUR Philippe VANDJOUR Laurence 01:42:39 MIXTES 4 00:23:13 00:05:27 BISONS FUTES 17,886 03:21
27 250 LECOCQ Chriss LAPOTRE Médéric 01:42:51 MASCULINS 17 00:23:25 00:23:25 LES BRAS CASSES 17,851 03:22
28 226 MILLE Laurent MATRINGHEN Tony 01:42:59 MASCULINS 18 00:23:33 00:23:33 LES JAMBES EN MOUSSE 17,828 03:22
29 219 AIGOUY Damien CUCHEVAL Florence 01:43:20 MIXTES 5 00:23:54 00:06:08 LYS CALAIS TRIATHLON 17,768 03:23
30 299 LEGRAND Jean Serge VANDERZYPPE Ludovic 01:43:29 VETERANS 6 00:24:03 00:14:13 SAV 17,742 03:23
31 208 VANDAELE Jérome MERLIN Nicolas 01:43:37 MASCULINS 19 00:24:11 00:24:11 LES BIGORNOS 17,719 03:23
32 202 MATHIEU Damien BIZ Delphine 01:44:42 MIXTES 6 00:25:16 00:07:30 GSO DUNKERQUE RAID AVENTURE 17,536 03:25
33 280 DIEUSET Anthony NOURTIER Nicolas 01:45:14 MASCULINS 20 00:25:48 00:25:48 OPALE TRAIL NATURE 17,447 03:26
34 255 BIENIOSZEK Fabrice GLASSIER François 01:45:18 VETERANS 7 00:25:52 00:16:02 MEME PAS PEUR 17,436 03:26
35 277 SCOBRY Anthony DEQUEKER Vincent 01:45:19 MASCULINS 21 00:25:53 00:25:53 CANYON'S BROTHERS 17,433 03:27
36 262 TETARD Christophe HODIQUE Hervé 01:45:21 VETERANS 8 00:25:55 00:16:05 LES POMPIERS DE DEFF 17,428 03:27
37 284 PORTEMONT Romain PORTEMONT Guillaume 01:45:25 MASCULINS 22 00:25:59 00:25:59 LES PETITS MINOUS 17,417 03:27
38 237 DEBRUXELLES Sébastien SAISON Stéphane 01:45:29 MASCULINS 23 00:26:03 00:26:03 LES BOFS 17,406 03:27
39 273 LOEUILLIEUX Pierre LOEUILLIEUX Franck 01:46:02 MASCULINS 24 00:26:36 00:26:36 BIG BROTHERS 17,315 03:28
40 217 BEAUSSART Sébastien FLOURY Grégory 01:46:06 MASCULINS 25 00:26:40 00:26:40 TWIX 17,304 03:28
41 259 LEFEBVRE Sébastien ESTAMPES François 01:46:13 MASCULINS 26 00:26:47 00:26:47 TEAM RAIDEUR 17,285 03:28
42 224 LEVEL Fabien LEVEL Lina 01:46:17 MIXTES 7 00:26:51 00:09:05 LES GIVRES DU DRAPEAU 17,275 03:28
43 220 COEUGNET Manuel GAVEL Grégory 01:46:53 MASCULINS 27 00:27:27 00:27:27 SPORT EVASION JEUNES 17,178 03:30
44 256 LOBEZ Baptiste 0 0 01:47:03 MASCULINS 28 00:27:37 00:27:37 CH'TI BADDOW 17,151 03:30
45 216 BERNARD Quentin PIQUET Maxime 01:47:26 MASCULINS 29 00:28:00 00:28:00 LES CASCADEURS 17,090 03:31
46 268 LESAGE Marc HURTH Denis 01:47:40 MASCULINS 30 00:28:14 00:28:14 UNSA POLICE 17,053 03:31
47 296 LHOMEL Antoine DEBAS Gérard 01:48:00 MASCULINS 31 00:28:34 00:28:34 FOR EVER 17,000 03:32
48 298 DUCANDAS Franck DUMONT Emmanuel 01:48:24 MASCULINS 32 00:28:58 00:28:58 LES SKATEURS 16,937 03:33
49 251 DEFACHELLE Geoffrey JACQUEMOD Mickael 01:48:27 MASCULINS 33 00:29:01 00:29:01 TEAM MANOSPORT 16,929 03:33
50 270 LEPETZ Olivier WAREMBOURG Philippe 01:48:59 MASCULINS 34 00:29:33 00:29:33 TEAM AIRSPIRE 16,847 03:34
51 300 BELLEMBOIS Stéphane DELCLOY Olivier 01:50:09 VETERANS 9 00:30:43 00:20:53 SAV 2 16,668 03:36
52 229 WARGNIER Philippe DUBOIS Tony 01:50:12 VETERANS 10 00:30:46 00:20:56 LES INCREVABLES DU LYS 16,661 03:36
53 98 SPILLIAERT Florence PRUVOST Yannick 01:50:21 MIXTES 8 00:30:55 00:13:09 DANS LE SPEED 16,638 03:36
54 205 DELITTE Jérémy LAMOUR Maxime 01:50:32 MASCULINS 35 00:31:06 00:31:06 LES ZLATANNEURS 16,610 03:37
55 254 SCIGACZ Jérome THUILLIER Patrick 01:50:55 MASCULINS 36 00:31:29 00:31:29 COURIR A LA FOLIE 1 16,553 03:37
56 291 LOEUILLEUX Bertrand VASSEUR Matthieu 01:51:17 MASCULINS 37 00:31:51 00:31:51 LES RETARDATAIRES 16,498 03:38
57 234 MARTIN Jean-Michel MARTIN Andy 01:51:44 MASCULINS 38 00:32:18 00:32:18 LES MARTINUS 16,432 03:39
58 223 TELLIER Romain DEBETTE Florian 01:52:13 MASCULINS 39 00:32:47 00:32:47 LES FANTASTIQUES 16,361 03:40
59 282 BLAEUCET Ludovic PRUVOST Nicolas 01:52:22 MASCULINS 40 00:32:56 00:32:56 GARMIN BROTHERS 16,339 03:40
60 232 BALY Patrick BALY Adrien 01:52:52 MASCULINS 41 00:33:26 00:33:26 TEAM BALY 16,267 03:41
61 240 CARDON Florian DOCQUOIS Frédéric 01:53:01 MASCULINS 42 00:33:35 00:33:35 LES PTITS CULS 16,245 03:42
62 236 LEBAS Eric MACQUET Olivier 01:53:03 VETERANS 11 00:33:37 00:23:47 LES CALMOS 16,241 03:42
63 297 POURRE Fabienne MASSON Annick 01:53:08 FEMININES 1 00:33:42 00:00:00 LES FILLES DU LYS 16,229 03:42
64 94 BAHEUX Jackie BAHEUX Florian 01:53:55 MASCULINS 43 00:34:29 00:34:29 LES LONGUEVILLOIS 16,117 03:43
65 96 LECOINTE Nicolas MANNESSIEZ Fabien 01:54:17 MASCULINS 44 00:34:51 00:34:51 LES RAMEURS 16,065 03:44
66 218 GAVOIS Cyril MONTIGNY Dimitri 01:54:25 MASCULINS 45 00:34:59 00:34:59 SPORT EVASION DES 2 CAPS LES GAMINS 16,047 03:44
67 239 MAQUINGHEN Christophe DEFOSSE Alexandre 01:54:43 MASCULINS 46 00:35:17 00:35:17 CHOUCHOU ET LOULOU 16,005 03:45
68 283 COUTURE Sandra HALLUIN Jérémie 01:55:50 MIXTES 9 00:36:24 00:18:38 XTREM RIDERS 15,850 03:47
69 228 LEJOSNE Luc DENGLOS Ludovic 01:55:52 VETERANS 12 00:36:26 00:26:36 TARFIA BOYS 15,846 03:47
70 293 LEBEC Mickael JOLLANT Maxime 01:56:20 MASCULINS 47 00:36:54 00:36:54 TUTY FRUTY 15,782 03:48
71 247 CAPDEVILLA Catherine LEROUX Guillaume 01:56:28 MIXTES 10 00:37:02 00:19:16 TEAM TRAIL 62 MIXTES 15,764 03:48
72 272 CHEMELLO Stéphane MACHION Thibault 01:56:39 MASCULINS 48 00:37:13 00:37:13 LES VEDETTES 15,739 03:49
73 244 ROSEY Christophe DEWEZ Julien 01:56:58 MASCULINS 49 00:37:32 00:37:32 LES MOUSQUETAIRES 15,697 03:49
74 264 DELATTRE Guillaume RENARD Julien 01:57:37 MASCULINS 50 00:38:11 00:38:11 LES BEAUFS 15,610 03:51
75 97 GUYOT Fabien JOURDAIN Charles 01:57:42 MASCULINS 51 00:38:16 00:38:16 8 MILE 15,599 03:51
76 231 BIZET Franck RUIZ Joseph 01:58:44 VETERANS 13 00:39:18 00:29:28 LES GRIZZLYS 15,463 03:53
77 249 CHOQUET Sébastien FALEMPIN James 01:59:14 MASCULINS 52 00:39:48 00:39:48 JAM ET SEB 15,398 03:54
78 209 LEVEL Eddy DUFOUR Emmanuel 02:00:02 MASCULINS 53 00:40:36 00:40:36 VAS Y PEPERE 15,296 03:55
79 271 DAGNEAUX Armel BODART Jean François 02:00:29 MASCULINS 54 00:41:03 00:41:03 THE FALL GUY 15,239 03:56
80 269 SUEUR Lise BRASSEUR Louis 02:01:20 MIXTES 11 00:41:54 00:24:08 LES BRASSEUR'S 15,132 03:58
81 241 RADENNE Christophe KRONUS Joël 02:02:29 VETERANS 14 00:43:03 00:33:13 LES BOYS 14,990 04:00
82 207 KAHN Julie KAMINSKI Olivia 02:03:13 FEMININES 2 00:43:47 00:10:05 LES STELLIENNES 14,901 04:02
83 246 WASIAK Richard GREMONT Anne 02:03:20 MIXTES 12 00:43:54 00:26:08 JULBO 2 14,886 04:02
84 276 BAREZ Cédric BAREZ Delphine 02:04:04 MIXTES 13 00:44:38 00:26:52 DUNKERQUE RAID AVENTURE B 14,798 04:03
85 263 HOLUIGUE Frédéric PIONTEK Fabrice 02:04:19 MASCULINS 55 00:44:53 00:44:53 LES COPAINS 14,769 04:04
86 212 LELEU Thomas GIRARD Adrien 02:06:24 MASCULINS 56 00:46:58 00:46:58 LES MAZMOKETS 14,525 04:08
87 238 BOUVILLE Mélanie GUILBERT Aurélie 02:06:56 FEMININES 3 00:47:30 00:13:48 LES BACQUETTES 14,464 04:09
88 261 KUSCHNICK Fabrice LAIDEZ Jonathan 02:08:09 MASCULINS 57 00:48:43 00:48:43 LES TIGRES DESVROIS 14,327 04:11
89 206 GODART Valérie DEPLECHIN David 02:08:11 MIXTES 14 00:48:45 00:30:59 TURTLE TEAM 14,323 04:11
90 215 RYCKEBUSCH Stéphane RYCKEBUSCH Marie 02:08:14 MIXTES 15 00:48:48 00:31:02 LA ZOUZOU TEAM 14,318 04:11
91 248 ORY Nicolas COQUART Jérémy 02:08:33 MASCULINS 58 00:49:07 00:49:07 THE FOREST BOLT 14,282 04:12
92 292 SAUVAGE Florian CLERCQ Victor 02:08:35 JEUNES 2 00:49:09 00:29:03 V'LA ENFIN LES RAIDES DINGUES 14,279 04:12
93 290 DELAY Mickael DELAY Caroline 02:08:43 MIXTES 16 00:49:17 00:31:31 UN DUO D'ENFER 14,264 04:12
94 266 THOMAS Caroline CHARLON Anne 02:11:11 FEMININES 4 00:51:45 00:18:03 LES DUNKERQUOISES 13,996 04:17
95 294 LANCE Freddy VASSEUR Sylvain 02:11:14 MASCULINS 59 00:51:48 00:51:48 FOUTU TEAM 13,990 04:17
96 258 VERMOOTE Frédéric VERMOOTE Christèle 02:11:35 MIXTES 17 00:52:09 00:34:23 OPALE SPORT SANTE 13,953 04:18
97 243 REYMBAUT Jean-Pierre BAILLIEUL Jérémy 02:12:01 MASCULINS 60 00:52:35 00:52:35 ARSOUILLE-BRILOU 13,907 04:19
98 222 ZAJAC Christel CLETON Eric 02:12:12 MIXTES 18 00:52:46 00:35:00 LES BUDDIES 13,888 04:19
99 211 SUEUR Louis SCABAILLIE François 02:13:08 MASCULINS 61 00:53:42 00:53:42 LES INCONNUS 13,791 04:21
100 281 COINON Alexandre DECROOCQ Marie 02:14:36 MIXTES 19 00:55:10 00:37:24 LES BACHIBOUZOUKS 13,640 04:24
101 227 DELCLOQUE Philippe CANEL Benoit 02:15:40 MASCULINS 62 00:56:14 00:56:14 LES TOURISTES 13,533 04:26
102 285 LEBRUN Sébastien VASSEUR Jean-Loup 02:19:13 MASCULINS 63 00:59:47 00:59:47 LES PISSE 4 GOUTTES 13,188 04:33
103 253 CHARPENTIER Cécile ELZBACH Aurélie 02:34:18 FEMININES 5 01:14:52 00:41:10 SPORT EVASION DES 2 CAPS 11,899 05:03
104 265 IMBERT Stéphanie DAJON Rachel 02:47:11 FEMININES 6 01:27:45 00:54:03 LES MALOUINES 10,982 05:28